createdAt,value
2018-11-03T00:01:37.494Z,15.73
2018-11-03T00:04:05.841Z,17.13
2018-11-03T00:06:34.162Z,17.30
2018-11-03T00:09:02.497Z,14.63
2018-11-03T00:11:30.813Z,15.63
2018-11-03T00:13:59.150Z,14.80
2018-11-03T00:16:27.520Z,14.27
2018-11-03T00:18:56.039Z,17.10
2018-11-03T00:21:24.370Z,14.77
2018-11-03T00:23:52.709Z,12.33
2018-11-03T00:26:21.034Z,16.27
2018-11-03T00:28:49.425Z,14.43
2018-11-03T00:31:17.729Z,13.47
2018-11-03T00:33:46.057Z,11.67
2018-11-03T00:36:14.369Z,12.97
2018-11-03T00:38:42.685Z,10.83
2018-11-03T00:41:11.002Z,14.10
2018-11-03T00:43:39.325Z,13.47
2018-11-03T00:46:08.077Z,17.00
2018-11-03T00:48:36.576Z,15.87
2018-11-03T00:51:04.957Z,15.80
2018-11-03T00:53:33.327Z,15.87
2018-11-03T00:56:01.640Z,16.43
2018-11-03T00:58:29.989Z,13.93
2018-11-03T01:00:58.289Z,13.77
2018-11-03T01:03:26.621Z,16.97
2018-11-03T01:05:54.933Z,11.57
2018-11-03T01:08:23.258Z,11.20
2018-11-03T01:10:51.572Z,14.10
2018-11-03T01:13:19.899Z,14.27
2018-11-03T01:15:48.214Z,12.23
2018-11-03T01:18:16.536Z,16.13
2018-11-03T01:20:44.846Z,13.50
2018-11-03T01:23:13.166Z,11.10
2018-11-03T01:25:41.486Z,15.23
2018-11-03T01:28:09.809Z,17.10
2018-11-03T01:30:38.180Z,13.73
2018-11-03T01:33:06.485Z,16.20
2018-11-03T01:35:34.809Z,16.27
2018-11-03T01:38:03.162Z,15.67
2018-11-03T01:40:31.506Z,15.80
2018-11-03T01:42:59.825Z,16.03
2018-11-03T01:45:28.169Z,16.40
2018-11-03T01:47:56.478Z,15.37
2018-11-03T01:50:24.807Z,16.60
2018-11-03T01:52:53.118Z,13.93
2018-11-03T01:55:21.479Z,15.40
2018-11-03T01:57:49.781Z,13.07
2018-11-03T02:00:18.109Z,15.70
2018-11-03T02:02:46.425Z,12.03
2018-11-03T02:05:14.784Z,12.73
2018-11-03T02:07:43.109Z,13.23
2018-11-03T02:10:12.239Z,15.83
2018-11-03T02:12:40.803Z,14.07
2018-11-03T02:15:09.605Z,15.37
2018-11-03T02:17:37.913Z,14.07
2018-11-03T02:20:07.363Z,12.63
2018-11-03T02:22:35.649Z,12.77
2018-11-03T02:25:04.022Z,13.87
2018-11-03T02:27:32.358Z,14.93
2018-11-03T02:30:00.691Z,13.93
2018-11-03T02:32:29.049Z,16.57
2018-11-03T02:34:57.353Z,14.00
2018-11-03T02:37:25.657Z,13.97
2018-11-03T02:39:54.011Z,16.27
2018-11-03T02:42:22.322Z,15.07
2018-11-03T02:44:50.662Z,15.40
2018-11-03T02:47:18.981Z,15.73
2018-11-03T02:49:47.307Z,15.07
2018-11-03T02:52:15.630Z,15.07
2018-11-03T02:54:43.948Z,16.10
2018-11-03T02:57:12.278Z,17.47
2018-11-03T02:59:40.586Z,15.67
2018-11-03T03:02:08.919Z,14.03
2018-11-03T03:04:37.221Z,13.93
2018-11-03T03:07:05.789Z,12.63
2018-11-03T03:09:34.119Z,15.77
2018-11-03T03:12:02.457Z,12.40
2018-11-03T03:14:30.773Z,15.27
2018-11-03T03:16:59.132Z,12.53
2018-11-03T03:19:27.449Z,13.07
2018-11-03T03:21:55.779Z,13.93
2018-11-03T03:24:24.090Z,14.27
2018-11-03T03:26:52.417Z,14.63
2018-11-03T03:29:20.816Z,12.33
2018-11-03T03:31:49.066Z,17.60
2018-11-03T03:34:17.369Z,12.97
2018-11-03T03:36:45.705Z,14.60
2018-11-03T03:39:14.029Z,16.87
2018-11-03T03:41:42.377Z,18.30
2018-11-03T03:44:10.694Z,16.17
2018-11-03T03:46:39.021Z,12.63
2018-11-03T03:49:07.340Z,13.10
2018-11-03T03:51:35.845Z,13.90
2018-11-03T03:54:04.453Z,13.67
2018-11-03T03:56:32.777Z,15.33
2018-11-03T03:59:01.287Z,15.37
2018-11-03T04:01:29.633Z,12.63
2018-11-03T04:03:57.949Z,16.50
2018-11-03T04:06:26.308Z,15.63
2018-11-03T04:08:54.637Z,15.07
2018-11-03T04:11:22.966Z,12.23
2018-11-03T04:13:51.280Z,11.50
2018-11-03T04:16:19.725Z,13.57
2018-11-03T04:18:48.034Z,14.80
2018-11-03T04:21:24.982Z,17.87
2018-11-03T04:23:53.309Z,17.93
2018-11-03T04:26:21.647Z,22.30
2018-11-03T04:28:50.205Z,20.07
2018-11-03T04:31:18.537Z,21.83
2018-11-03T04:33:46.957Z,25.07
2018-11-03T04:36:15.290Z,23.60
2018-11-03T04:38:43.714Z,23.27
2018-11-03T04:41:12.042Z,30.83
2018-11-03T04:43:40.469Z,29.67
2018-11-03T04:46:09.071Z,16.60
2018-11-03T04:48:37.529Z,20.93
2018-11-03T04:51:06.348Z,19.43
2018-11-03T04:53:34.669Z,17.83
2018-11-03T04:56:02.981Z,16.10
2018-11-03T04:58:31.340Z,18.63
2018-11-03T05:00:59.669Z,20.80
2018-11-03T05:03:28.130Z,27.77
2018-11-03T05:05:56.698Z,22.80
2018-11-03T05:08:25.037Z,27.77
2018-11-03T05:10:53.346Z,26.60
2018-11-03T05:13:21.674Z,30.17
2018-11-03T05:15:50.001Z,27.53
2018-11-03T05:18:18.292Z,20.93
2018-11-03T05:20:46.638Z,26.30
2018-11-03T05:23:15.005Z,30.27
2018-11-03T05:25:43.334Z,32.07
2018-11-03T05:28:11.642Z,28.23
2018-11-03T05:30:39.978Z,26.23
2018-11-03T05:33:08.298Z,22.80
2018-11-03T05:35:36.626Z,23.40
2018-11-03T05:38:05.209Z,21.90
2018-11-03T05:40:33.561Z,23.80
2018-11-03T05:43:02.068Z,20.47
2018-11-03T05:45:30.394Z,19.73
2018-11-03T05:47:59.018Z,32.33
2018-11-03T05:50:27.358Z,24.23
2018-11-03T05:52:55.740Z,29.20
2018-11-03T05:55:24.049Z,28.63
2018-11-03T05:57:52.381Z,29.40
2018-11-03T06:00:20.734Z,32.60
2018-11-03T06:02:49.033Z,35.97
2018-11-03T06:05:17.357Z,37.70
2018-11-03T06:07:45.793Z,38.83
2018-11-03T06:10:14.138Z,32.73
2018-11-03T06:12:42.450Z,27.07
2018-11-03T06:15:11.264Z,23.60
2018-11-03T06:17:39.588Z,23.43
2018-11-03T06:20:08.166Z,21.50
2018-11-03T06:22:36.561Z,20.17
2018-11-03T06:25:05.935Z,25.30
2018-11-03T06:27:34.280Z,25.57
2018-11-03T06:30:02.613Z,25.17
2018-11-03T06:32:30.945Z,21.00
2018-11-03T06:34:59.284Z,25.80
2018-11-03T06:37:27.590Z,24.47
2018-11-03T06:39:59.110Z,27.27
2018-11-03T06:42:29.681Z,27.70
2018-11-03T06:44:58.877Z,28.40
2018-11-03T06:47:27.498Z,31.00
2018-11-03T06:49:58.341Z,28.00
2018-11-03T06:52:26.718Z,28.70
2018-11-03T06:54:55.070Z,40.33
2018-11-03T06:57:23.406Z,26.00
2018-11-03T06:59:51.721Z,28.20
2018-11-03T07:02:20.050Z,29.27
2018-11-03T07:04:48.641Z,33.60
2018-11-03T07:07:16.981Z,38.07
2018-11-03T07:09:45.329Z,32.03
2018-11-03T07:12:13.813Z,35.03
2018-11-03T07:14:41.989Z,41.43
2018-11-03T07:17:10.320Z,35.37
2018-11-03T07:19:38.636Z,29.27
2018-11-03T07:22:06.974Z,37.10
2018-11-03T07:24:35.297Z,37.87
2018-11-03T07:27:03.638Z,45.40
2018-11-03T07:29:31.968Z,40.17
2018-11-03T07:32:00.281Z,43.47
2018-11-03T07:34:28.605Z,39.90
2018-11-03T07:36:56.957Z,46.50
2018-11-03T07:39:25.340Z,31.60
2018-11-03T07:41:54.028Z,28.20
2018-11-03T07:44:22.373Z,36.07
2018-11-03T07:46:50.745Z,32.60
2018-11-03T07:49:19.139Z,35.43
2018-11-03T07:51:48.504Z,33.33
2018-11-03T07:54:16.955Z,41.27
2018-11-03T07:56:45.325Z,39.03
2018-11-03T07:59:13.649Z,41.60
2018-11-03T08:01:42.025Z,39.33
2018-11-03T08:04:10.497Z,39.00
2018-11-03T08:06:38.897Z,34.47
2018-11-03T08:09:09.704Z,35.57
2018-11-03T08:11:38.520Z,33.37
2018-11-03T08:14:07.010Z,28.10
2018-11-03T08:16:35.350Z,22.07
2018-11-03T08:19:04.587Z,22.57
2018-11-03T08:21:32.939Z,26.90
2018-11-03T08:24:01.307Z,18.63
2018-11-03T08:26:29.633Z,17.93
2018-11-03T08:28:57.981Z,17.07
2018-11-03T08:31:26.435Z,16.50
2018-11-03T08:33:54.818Z,13.97
2018-11-03T08:36:23.250Z,19.03
2018-11-03T08:38:51.601Z,18.60
2018-11-03T08:41:19.911Z,17.87
2018-11-03T08:43:48.237Z,22.30
2018-11-03T08:46:16.543Z,20.23
2018-11-03T08:48:45.064Z,29.57
2018-11-03T08:51:13.737Z,25.27
2018-11-03T08:53:42.097Z,22.30
2018-11-03T08:56:10.440Z,23.27
2018-11-03T08:58:38.918Z,20.03
2018-11-03T09:01:07.266Z,20.73
2018-11-03T09:03:35.612Z,20.97
2018-11-03T09:06:03.924Z,19.03
2018-11-03T09:08:32.271Z,21.07
2018-11-03T09:11:00.577Z,20.50
2018-11-03T09:13:28.938Z,18.10
2018-11-03T09:15:57.370Z,17.97
2018-11-03T09:18:25.854Z,18.13
2018-11-03T09:20:54.165Z,17.37
2018-11-03T09:23:22.494Z,16.47
2018-11-03T09:25:50.811Z,16.37
2018-11-03T09:28:19.153Z,15.53
2018-11-03T09:30:47.544Z,18.10
2018-11-03T09:33:15.887Z,15.43
2018-11-03T09:35:44.269Z,15.87
2018-11-03T09:38:12.644Z,18.57
2018-11-03T09:40:40.990Z,15.30
2018-11-03T09:43:09.342Z,15.20
2018-11-03T09:45:37.677Z,20.00
2018-11-03T09:48:06.217Z,15.83
2018-11-03T09:50:34.580Z,15.37
2018-11-03T09:53:02.995Z,20.70
2018-11-03T09:55:31.318Z,18.07
2018-11-03T09:57:59.713Z,15.13
2018-11-03T10:00:28.029Z,17.30
2018-11-03T10:02:56.361Z,19.20
2018-11-03T10:05:24.706Z,15.73
2018-11-03T10:07:53.146Z,18.57
2018-11-03T10:10:21.477Z,16.83
2018-11-03T10:12:49.826Z,16.00
2018-11-03T10:15:18.918Z,14.43
2018-11-03T10:17:47.422Z,13.83
2018-11-03T10:20:15.810Z,14.83
2018-11-03T10:22:44.161Z,15.37
2018-11-03T10:25:15.229Z,15.80
2018-11-03T10:27:44.237Z,13.87
2018-11-03T10:30:13.811Z,12.83
2018-11-03T10:32:42.478Z,13.13
2018-11-03T10:35:11.797Z,15.67
2018-11-03T10:37:40.144Z,15.77
2018-11-03T10:40:10.613Z,13.23
2018-11-03T10:42:38.989Z,13.03
2018-11-03T10:45:08.994Z,12.80
2018-11-03T10:47:37.561Z,14.20
2018-11-03T10:50:09.462Z,15.53
2018-11-03T10:52:38.204Z,16.77
2018-11-03T10:55:07.222Z,15.10
2018-11-03T10:57:35.770Z,15.13
2018-11-03T11:00:04.537Z,15.97
2018-11-03T11:02:38.278Z,13.60
2018-11-03T11:05:12.182Z,15.20
2018-11-03T11:07:46.001Z,15.03
2018-11-03T11:10:24.653Z,15.43
2018-11-03T11:12:53.698Z,14.67
2018-11-03T11:15:22.053Z,16.53
2018-11-03T11:17:50.381Z,14.87
2018-11-03T11:20:18.708Z,17.70
2018-11-03T11:22:47.018Z,14.90
2018-11-03T11:25:15.465Z,14.87
2018-11-03T11:27:43.698Z,14.90
2018-11-03T11:30:12.576Z,13.97
2018-11-03T11:32:41.225Z,13.87
2018-11-03T11:35:09.498Z,13.73
2018-11-03T11:37:37.908Z,17.10
2018-11-03T11:40:06.745Z,14.83
2018-11-03T11:42:35.081Z,13.23
2018-11-03T11:45:03.442Z,14.07
2018-11-03T11:47:31.770Z,14.60
2018-11-03T11:50:00.130Z,13.00
2018-11-03T11:52:28.460Z,14.40
2018-11-03T11:54:56.824Z,17.23
2018-11-03T11:57:25.121Z,13.93
2018-11-03T11:59:53.454Z,14.90
2018-11-03T12:02:21.854Z,15.07
2018-11-03T12:04:50.145Z,14.33
2018-11-03T12:07:18.461Z,17.30
2018-11-03T12:09:46.812Z,15.27
2018-11-03T12:12:15.137Z,16.17
2018-11-03T12:14:43.497Z,16.40
2018-11-03T12:17:11.825Z,14.90
2018-11-03T12:19:40.247Z,15.43
2018-11-03T12:22:08.561Z,14.87
2018-11-03T12:24:36.897Z,13.83
2018-11-03T12:27:05.252Z,15.80
2018-11-03T12:29:33.565Z,14.77
2018-11-03T12:32:01.930Z,13.17
2018-11-03T12:34:30.266Z,12.47
2018-11-03T12:36:58.605Z,14.07
2018-11-03T12:39:26.914Z,11.70
2018-11-03T12:41:55.253Z,12.50
2018-11-03T12:44:23.580Z,12.97
2018-11-03T12:46:51.913Z,12.87
2018-11-03T12:49:20.233Z,12.97
2018-11-03T12:51:48.594Z,11.87
2018-11-03T12:54:16.918Z,13.37
2018-11-03T12:56:45.397Z,11.77
2018-11-03T12:59:13.736Z,12.90
2018-11-03T13:01:42.058Z,12.70
2018-11-03T13:04:10.444Z,11.73
2018-11-03T13:06:38.745Z,11.67
2018-11-03T13:09:08.815Z,11.83
2018-11-03T13:11:37.137Z,10.70
2018-11-03T13:14:05.581Z,10.60
2018-11-03T13:16:33.917Z,10.63
2018-11-03T13:19:02.629Z,10.87
2018-11-03T13:21:30.954Z,10.63
2018-11-03T13:23:59.253Z,9.67
2018-11-03T13:26:27.673Z,10.77
2018-11-03T13:28:56.005Z,10.33
2018-11-03T13:31:24.341Z,12.40
2018-11-03T13:33:52.647Z,11.67
2018-11-03T13:36:20.965Z,11.07
2018-11-03T13:38:49.265Z,10.93
2018-11-03T13:41:17.596Z,9.00
2018-11-03T13:43:45.906Z,9.90
2018-11-03T13:46:14.236Z,9.23
2018-11-03T13:48:42.713Z,11.17
2018-11-03T13:51:11.056Z,9.27
2018-11-03T13:53:39.360Z,12.13
2018-11-03T13:56:07.674Z,9.67
2018-11-03T13:58:36.014Z,10.53
2018-11-03T14:01:04.366Z,9.73
2018-11-03T14:03:32.661Z,8.40
2018-11-03T14:06:00.999Z,7.83
2018-11-03T14:08:29.325Z,8.67
2018-11-03T14:10:57.717Z,9.13
2018-11-03T14:13:26.022Z,8.73
2018-11-03T14:15:54.334Z,6.93
2018-11-03T14:18:22.658Z,7.23
2018-11-03T14:20:50.976Z,6.73
2018-11-03T14:23:19.349Z,7.97
2018-11-03T14:25:47.666Z,8.57
2018-11-03T14:28:16.025Z,8.60
2018-11-03T14:30:44.345Z,7.33
2018-11-03T14:33:12.721Z,9.73
2018-11-03T14:35:41.088Z,7.47
2018-11-03T14:38:09.410Z,7.87
2018-11-03T14:40:37.711Z,6.23
2018-11-03T14:43:06.050Z,7.93
2018-11-03T14:45:34.354Z,8.73
2018-11-03T14:48:02.703Z,7.07
2018-11-03T14:50:31.043Z,9.73
2018-11-03T14:52:59.817Z,10.50
2018-11-03T14:55:28.785Z,7.93
2018-11-03T14:57:57.159Z,34.53
2018-11-03T15:00:25.521Z,10.63
2018-11-03T15:02:53.881Z,8.37
2018-11-03T15:05:22.191Z,8.63
2018-11-03T15:07:50.509Z,9.00
2018-11-03T15:10:18.857Z,8.00
2018-11-03T15:12:47.206Z,9.27
2018-11-03T15:15:15.990Z,7.97
2018-11-03T15:17:44.854Z,7.77
2018-11-03T15:20:13.946Z,9.07
2018-11-03T15:22:43.202Z,10.33
2018-11-03T15:25:12.515Z,11.37
2018-11-03T15:27:41.542Z,10.70
2018-11-03T15:30:11.174Z,9.80
2018-11-03T15:32:39.913Z,13.50
2018-11-03T15:35:08.823Z,9.63
2018-11-03T15:37:37.476Z,9.80
2018-11-03T15:40:07.865Z,11.07
2018-11-03T15:42:36.181Z,10.97
2018-11-03T15:45:05.869Z,12.47
2018-11-03T15:47:34.205Z,11.67
2018-11-03T15:50:02.522Z,13.10
2018-11-03T15:52:30.821Z,16.40
2018-11-03T15:54:59.231Z,11.87
2018-11-03T15:57:27.533Z,13.77
2018-11-03T15:59:55.879Z,11.83
2018-11-03T16:02:24.201Z,13.73
2018-11-03T16:04:52.531Z,11.23
2018-11-03T16:07:20.844Z,13.07
2018-11-03T16:09:49.183Z,12.10
2018-11-03T16:12:17.655Z,10.57
2018-11-03T16:14:45.858Z,12.27
2018-11-03T16:17:14.245Z,12.30
2018-11-03T16:19:42.674Z,12.00
2018-11-03T16:22:11.066Z,11.30
2018-11-03T16:24:39.410Z,14.33
2018-11-03T16:27:07.962Z,21.13
2018-11-03T16:29:36.295Z,12.50
2018-11-03T16:32:04.690Z,12.73
2018-11-03T16:34:33.037Z,10.30
2018-11-03T16:37:01.352Z,10.23
2018-11-03T16:39:29.681Z,10.37
2018-11-03T16:41:58.011Z,12.63
2018-11-03T16:44:26.375Z,12.50
2018-11-03T16:46:54.930Z,10.03
2018-11-03T16:49:23.254Z,10.60
2018-11-03T16:51:51.561Z,11.47
2018-11-03T16:54:19.902Z,10.87
2018-11-03T16:56:48.198Z,9.87
2018-11-03T16:59:16.538Z,10.40
2018-11-03T17:01:44.860Z,15.33
2018-11-03T17:04:13.326Z,17.00
2018-11-03T17:06:41.654Z,15.57
2018-11-03T17:09:09.973Z,13.27
2018-11-03T17:11:38.282Z,15.60
2018-11-03T17:14:06.869Z,13.93
2018-11-03T17:16:35.173Z,15.47
2018-11-03T17:19:03.544Z,13.00
2018-11-03T17:21:31.854Z,12.37
2018-11-03T17:24:00.942Z,13.80
2018-11-03T17:26:29.258Z,13.13
2018-11-03T17:28:57.602Z,15.20
2018-11-03T17:31:25.942Z,13.67
2018-11-03T17:33:54.282Z,13.63
2018-11-03T17:36:22.708Z,11.67
2018-11-03T17:38:50.940Z,12.70
2018-11-03T17:41:19.275Z,12.40
2018-11-03T17:43:47.591Z,12.90
2018-11-03T17:46:15.938Z,13.40
2018-11-03T17:48:44.274Z,14.37
2018-11-03T17:51:12.862Z,14.00
2018-11-03T17:53:41.166Z,12.20
2018-11-03T17:56:09.502Z,16.70
2018-11-03T17:58:37.825Z,13.27
2018-11-03T18:01:06.196Z,15.73
2018-11-03T18:03:34.488Z,12.87
2018-11-03T18:06:02.909Z,14.93
2018-11-03T18:08:31.266Z,14.27
2018-11-03T18:10:59.613Z,14.53
2018-11-03T18:13:27.913Z,13.13
2018-11-03T18:15:56.249Z,14.63
2018-11-03T18:18:24.557Z,15.00
2018-11-03T18:20:52.891Z,15.67
2018-11-03T18:23:21.186Z,15.63
2018-11-03T18:25:49.529Z,14.43
2018-11-03T18:28:17.877Z,14.00
2018-11-03T18:30:46.225Z,13.93
2018-11-03T18:33:14.637Z,13.60
2018-11-03T18:35:42.892Z,15.47
2018-11-03T18:38:11.198Z,14.53
2018-11-03T18:40:39.534Z,13.83
2018-11-03T18:43:07.925Z,15.77
2018-11-03T18:45:36.313Z,16.07
2018-11-03T18:48:04.866Z,17.80
2018-11-03T18:50:33.219Z,15.60
2018-11-03T18:53:01.524Z,17.00
2018-11-03T18:55:29.875Z,17.90
2018-11-03T18:57:58.197Z,15.77
2018-11-03T19:00:26.543Z,18.77
2018-11-03T19:02:54.850Z,16.47
2018-11-03T19:05:23.269Z,20.87
2018-11-03T19:07:51.645Z,20.73
2018-11-03T19:10:19.986Z,22.67
2018-11-03T19:12:48.311Z,21.10
2018-11-03T19:15:16.676Z,24.97
2018-11-03T19:17:45.094Z,25.47
2018-11-03T19:20:14.683Z,24.77
2018-11-03T19:22:43.149Z,23.13
2018-11-03T19:25:12.855Z,27.97
2018-11-03T19:27:41.624Z,24.30
2018-11-03T19:30:11.466Z,52.13
2018-11-03T19:32:41.069Z,38.73
2018-11-03T19:35:09.734Z,35.77
2018-11-03T19:37:38.435Z,30.37
2018-11-03T19:40:07.838Z,30.10
2018-11-03T19:42:36.255Z,30.63
2018-11-03T19:45:04.739Z,29.37
2018-11-03T19:47:33.181Z,31.23
2018-11-03T19:50:01.530Z,28.03
2018-11-03T19:52:29.907Z,27.03
2018-11-03T19:54:58.300Z,30.47
2018-11-03T19:57:26.781Z,37.27
2018-11-03T19:59:55.111Z,33.53
2018-11-03T20:02:23.691Z,27.77
2018-11-03T20:04:52.082Z,31.00
2018-11-03T20:07:20.440Z,31.50
2018-11-03T20:09:48.775Z,29.83
2018-11-03T20:12:17.125Z,28.90
2018-11-03T20:14:45.458Z,30.07
2018-11-03T20:17:13.790Z,31.63
2018-11-03T20:19:42.129Z,31.30
2018-11-03T20:22:10.486Z,62.37
2018-11-03T20:24:38.797Z,36.43
2018-11-03T20:27:07.150Z,33.77
2018-11-03T20:29:35.457Z,25.63
2018-11-03T20:32:03.939Z,24.27
2018-11-03T20:34:32.110Z,25.30
2018-11-03T20:37:07.598Z,26.90
2018-11-03T20:39:35.908Z,30.97
2018-11-03T20:42:04.942Z,31.90
2018-11-03T20:44:33.254Z,32.00
2018-11-03T20:47:01.582Z,28.80
2018-11-03T20:49:29.882Z,24.47
2018-11-03T20:51:58.278Z,26.93
2018-11-03T20:54:26.593Z,26.80
2018-11-03T20:56:54.957Z,27.10
2018-11-03T20:59:23.317Z,23.57
2018-11-03T21:01:51.705Z,28.67
2018-11-03T21:04:19.973Z,24.77
2018-11-03T21:06:48.445Z,26.50
2018-11-03T21:09:16.752Z,28.10
2018-11-03T21:11:45.077Z,26.13
2018-11-03T21:14:13.387Z,23.90
2018-11-03T21:16:41.768Z,28.10
2018-11-03T21:19:10.134Z,27.60
2018-11-03T21:21:38.533Z,26.40
2018-11-03T21:24:06.934Z,23.90
2018-11-03T21:26:35.252Z,24.53
2018-11-03T21:29:03.609Z,25.97
2018-11-03T21:31:31.997Z,27.70
2018-11-03T21:34:00.363Z,27.97
2018-11-03T21:36:28.759Z,28.30
2018-11-03T21:38:57.084Z,32.07
2018-11-03T21:41:25.397Z,32.20
2018-11-03T21:43:53.724Z,30.47
2018-11-03T21:46:22.048Z,28.60
2018-11-03T21:48:50.381Z,30.13
2018-11-03T21:51:18.683Z,32.13
2018-11-03T21:53:47.006Z,29.77
2018-11-03T21:56:15.309Z,29.80
2018-11-03T21:58:43.633Z,32.73
2018-11-03T22:01:11.954Z,43.93
2018-11-03T22:03:40.318Z,48.40
2018-11-03T22:06:08.669Z,85.03
2018-11-03T22:08:37.034Z,57.10
2018-11-03T22:11:05.389Z,37.27
2018-11-03T22:13:33.732Z,28.43
2018-11-03T22:16:02.126Z,53.20
2018-11-03T22:18:30.402Z,35.33
2018-11-03T22:20:58.745Z,37.30
2018-11-03T22:23:27.078Z,32.00
2018-11-03T22:25:55.406Z,38.37
2018-11-03T22:28:23.764Z,39.07
2018-11-03T22:30:52.141Z,38.73
2018-11-03T22:33:27.211Z,34.57
2018-11-03T22:35:55.533Z,33.10
2018-11-03T22:38:23.913Z,26.57
2018-11-03T22:40:52.277Z,24.70
2018-11-03T22:43:20.786Z,24.03
2018-11-03T22:45:49.099Z,23.63
2018-11-03T22:48:17.429Z,23.90
2018-11-03T22:50:46.620Z,24.03
2018-11-03T22:53:14.962Z,21.53
2018-11-03T22:55:43.266Z,25.93
2018-11-03T22:58:11.581Z,20.37
2018-11-03T23:00:45.402Z,20.30
2018-11-03T23:03:13.986Z,20.60
2018-11-03T23:05:42.331Z,20.57
2018-11-03T23:08:10.677Z,20.67
2018-11-03T23:10:39.090Z,20.90
2018-11-03T23:13:07.458Z,22.40
2018-11-03T23:15:35.725Z,21.17
2018-11-03T23:18:05.611Z,21.90
2018-11-03T23:20:33.968Z,25.43
2018-11-03T23:23:02.301Z,25.20
2018-11-03T23:25:30.611Z,29.20
2018-11-03T23:27:59.604Z,26.07
2018-11-03T23:30:27.922Z,25.63
2018-11-03T23:32:56.249Z,28.47
2018-11-03T23:35:24.552Z,25.73
2018-11-03T23:37:52.922Z,26.87
2018-11-03T23:40:24.292Z,22.50
2018-11-03T23:42:52.653Z,26.30
2018-11-03T23:45:20.989Z,23.00
2018-11-03T23:47:49.301Z,27.37
2018-11-03T23:50:17.658Z,22.80
2018-11-03T23:52:47.076Z,23.93
2018-11-03T23:55:15.444Z,26.37
2018-11-03T23:57:43.948Z,24.27
